Time;durP1;ratioP1;P1;durP2;ratioP2;P2;SDS_P1;SDS_P2;PMS_P1;PMS_P2;Temp;Humidity;BMP_temperature;BMP_pressure;BME280_temperature;BME280_humidity;BME280_pressure;Samples;Min_cycle;Max_cycle;Signal;HPM_P1;HPM_P2
2021/05/30 00:02:18;;;;;;;29.10;26.70;;;8.80;99.90;;;;;;5001802;28;20478;-72
2021/05/30 00:04:45;;;;;;;28.70;26.13;;;8.70;99.90;;;;;;5006537;28;20485;-71
2021/05/30 00:07:12;;;;;;;27.57;25.37;;;8.70;99.90;;;;;;5006277;28;20940;-72
2021/05/30 00:09:39;;;;;;;28.30;25.80;;;8.60;99.90;;;;;;5002915;28;20489;-73
2021/05/30 00:12:07;;;;;;;28.17;25.60;;;8.50;99.90;;;;;;5001103;28;20465;-72
2021/05/30 00:14:34;;;;;;;29.03;26.63;;;8.50;99.90;;;;;;4998149;28;20980;-71
2021/05/30 00:17:01;;;;;;;30.73;27.80;;;8.50;99.90;;;;;;5010114;28;20731;-72
2021/05/30 00:19:29;;;;;;;31.17;28.13;;;8.40;99.90;;;;;;5006044;28;20550;-71
2021/05/30 00:21:56;;;;;;;29.67;26.97;;;8.30;99.90;;;;;;5001987;28;20468;-73
2021/05/30 00:24:22;;;;;;;31.47;28.63;;;8.30;99.90;;;;;;5002855;28;20462;-72
2021/05/30 00:26:48;;;;;;;33.27;29.73;;;8.20;99.90;;;;;;5003830;28;20458;-72
2021/05/30 00:29:15;;;;;;;31.37;28.40;;;8.20;99.90;;;;;;5007426;28;21171;-71
2021/05/30 00:31:42;;;;;;;32.90;29.57;;;8.10;99.90;;;;;;5001068;28;20467;-74
2021/05/30 00:34:08;;;;;;;32.33;29.23;;;8.20;99.90;;;;;;5002410;28;20453;-71
2021/05/30 00:36:35;;;;;;;33.23;29.97;;;8.20;99.90;;;;;;5000432;28;20900;-74
2021/05/30 00:39:02;;;;;;;32.63;29.57;;;8.20;99.90;;;;;;5005606;28;20472;-73
2021/05/30 00:41:28;;;;;;;34.37;31.13;;;8.30;99.90;;;;;;5001530;28;20473;-71
2021/05/30 00:43:55;;;;;;;34.10;30.90;;;8.20;99.90;;;;;;4997149;28;20461;-72
2021/05/30 00:46:22;;;;;;;33.73;30.50;;;8.10;99.90;;;;;;4998920;28;20466;-73
2021/05/30 00:48:49;;;;;;;34.77;30.90;;;8.10;99.90;;;;;;5006436;28;20467;-72
2021/05/30 00:51:16;;;;;;;34.03;30.70;;;8.10;99.90;;;;;;5004114;28;20635;-73
2021/05/30 00:53:45;;;;;;;33.83;30.53;;;8.00;99.90;;;;;;5005218;28;20487;-72
2021/05/30 00:56:13;;;;;;;35.90;32.33;;;8.00;99.90;;;;;;5002990;28;20517;-72
2021/05/30 00:58:40;;;;;;;39.50;35.60;;;8.00;99.90;;;;;;4996512;28;20486;-72
2021/05/30 01:01:07;;;;;;;37.27;33.67;;;8.10;99.90;;;;;;5004522;28;20502;-71
2021/05/30 01:03:35;;;;;;;34.83;31.40;;;8.10;99.90;;;;;;5000296;28;20467;-74
2021/05/30 01:06:02;;;;;;;37.93;33.83;;;8.00;99.90;;;;;;5005006;28;20494;-73
2021/05/30 01:08:28;;;;;;;36.33;32.60;;;8.00;99.90;;;;;;5003723;28;20464;-72
2021/05/30 01:10:58;;;;;;;33.47;30.30;;;7.90;99.90;;;;;;4997539;28;20852;-73
2021/05/30 01:13:26;;;;;;;35.13;31.40;;;7.90;99.90;;;;;;4999943;28;20455;-72
2021/05/30 01:15:53;;;;;;;34.80;31.10;;;7.90;99.90;;;;;;5001916;28;20489;-74
2021/05/30 01:18:22;;;;;;;35.20;31.60;;;7.80;99.90;;;;;;4999471;28;20469;-72
2021/05/30 01:20:49;;;;;;;32.57;29.67;;;7.80;99.90;;;;;;4991251;28;20816;-72
2021/05/30 01:23:18;;;;;;;32.07;29.10;;;7.70;99.90;;;;;;5004503;28;20475;-72
2021/05/30 01:25:45;;;;;;;35.90;32.40;;;7.70;99.90;;;;;;5005674;28;20838;-71
2021/05/30 01:28:12;;;;;;;37.57;33.87;;;7.60;99.90;;;;;;5000656;28;20498;-74
2021/05/30 01:30:38;;;;;;;34.40;31.03;;;7.60;99.90;;;;;;5003090;28;20543;-72
2021/05/30 01:33:05;;;;;;;32.00;29.10;;;7.50;99.90;;;;;;4999232;28;20465;-71
2021/05/30 01:35:33;;;;;;;33.77;30.40;;;7.50;99.90;;;;;;4998182;28;20473;-75
2021/05/30 01:37:59;;;;;;;37.00;33.40;;;7.40;99.90;;;;;;4997956;28;20501;-73
2021/05/30 01:40:27;;;;;;;35.37;31.87;;;7.30;99.90;;;;;;5002712;28;20821;-72
2021/05/30 01:42:55;;;;;;;37.20;33.27;;;7.40;99.90;;;;;;4999674;28;20818;-71
2021/05/30 01:45:23;;;;;;;35.17;31.77;;;7.30;99.90;;;;;;5000281;28;20489;-75
2021/05/30 01:47:50;;;;;;;34.87;31.70;;;7.40;99.90;;;;;;5002808;28;20450;-72
2021/05/30 01:50:18;;;;;;;38.10;31.90;;;7.40;99.90;;;;;;5006275;28;20481;-74
2021/05/30 01:52:45;;;;;;;35.23;31.70;;;7.40;99.90;;;;;;5004393;28;20512;-72
2021/05/30 01:55:20;;;;;;;34.27;31.00;;;7.40;99.90;;;;;;4998165;28;21004;-71
2021/05/30 01:57:49;;;;;;;34.67;31.27;;;7.30;99.90;;;;;;4995048;28;20507;-72
2021/05/30 02:00:17;;;;;;;33.50;30.20;;;7.40;99.90;;;;;;4998230;28;20996;-74
2021/05/30 02:02:46;;;;;;;34.10;30.60;;;7.30;99.90;;;;;;5000869;28;20484;-75
2021/05/30 02:05:13;;;;;;;32.40;29.40;;;7.30;99.90;;;;;;5001487;28;20476;-71
2021/05/30 02:07:40;;;;;;;34.40;31.33;;;7.20;99.90;;;;;;5000041;28;20780;-72
2021/05/30 02:10:08;;;;;;;33.53;30.43;;;7.20;99.90;;;;;;5001422;28;20580;-72
2021/05/30 02:12:35;;;;;;;35.00;31.50;;;7.10;99.90;;;;;;4999367;28;20461;-71
2021/05/30 02:15:04;;;;;;;33.97;31.07;;;7.10;99.90;;;;;;4995758;28;20491;-71
2021/05/30 02:17:30;;;;;;;34.70;31.30;;;7.10;99.90;;;;;;4996311;28;20507;-74
2021/05/30 02:19:58;;;;;;;35.27;31.70;;;7.00;99.90;;;;;;5000136;28;20474;-72
2021/05/30 02:22:24;;;;;;;33.37;30.27;;;7.00;99.90;;;;;;4998478;28;20549;-72
2021/05/30 02:24:50;;;;;;;34.27;31.27;;;7.00;99.90;;;;;;4999503;28;20469;-72
2021/05/30 02:27:17;;;;;;;33.53;30.27;;;7.00;99.90;;;;;;4994619;28;20528;-72
2021/05/30 02:29:44;;;;;;;33.13;30.00;;;6.90;99.90;;;;;;4998738;28;20844;-74
2021/05/30 02:32:13;;;;;;;37.73;31.33;;;6.90;99.90;;;;;;5004343;28;20461;-72
2021/05/30 02:34:42;;;;;;;33.63;30.20;;;6.90;99.90;;;;;;5000540;28;20488;-71
2021/05/30 02:37:09;;;;;;;33.40;29.93;;;6.90;99.90;;;;;;5000705;28;20520;-74
2021/05/30 02:39:36;;;;;;;35.60;32.30;;;6.90;99.90;;;;;;4998722;28;20464;-74
2021/05/30 02:42:04;;;;;;;32.93;29.73;;;6.90;99.90;;;;;;4999450;28;20467;-72
2021/05/30 02:44:30;;;;;;;35.17;31.83;;;6.90;99.90;;;;;;4995979;28;20488;-72
2021/05/30 02:46:57;;;;;;;34.80;31.40;;;6.80;99.90;;;;;;5004161;28;20875;-71
2021/05/30 02:49:24;;;;;;;32.57;29.63;;;6.70;99.90;;;;;;5008303;28;20869;-71
2021/05/30 02:51:51;;;;;;;32.33;29.43;;;6.80;99.90;;;;;;5001151;28;21037;-73
2021/05/30 02:54:18;;;;;;;33.60;30.60;;;6.70;99.90;;;;;;4997978;28;20553;-72
2021/05/30 02:56:44;;;;;;;32.33;29.20;;;6.70;99.90;;;;;;4999722;28;20473;-74
2021/05/30 02:59:10;;;;;;;32.70;29.20;;;6.70;99.90;;;;;;5000440;28;20474;-72
2021/05/30 03:01:37;;;;;;;31.53;28.90;;;6.70;99.90;;;;;;5008055;28;20469;-73
2021/05/30 03:04:05;;;;;;;31.30;27.93;;;6.60;99.90;;;;;;4996547;28;20467;-72
2021/05/30 03:06:32;;;;;;;32.73;29.70;;;6.60;99.90;;;;;;5001209;28;20473;-72
2021/05/30 03:09:00;;;;;;;31.00;28.37;;;6.60;99.90;;;;;;4998128;28;20450;-73
2021/05/30 03:11:27;;;;;;;32.77;29.87;;;6.60;99.90;;;;;;4997297;28;20466;-71
2021/05/30 03:13:54;;;;;;;31.73;29.03;;;6.50;99.90;;;;;;4998376;28;20464;-71
2021/05/30 03:16:21;;;;;;;31.30;28.60;;;6.50;99.90;;;;;;5003280;28;20956;-74
2021/05/30 03:18:48;;;;;;;33.00;29.77;;;6.40;99.90;;;;;;4996418;28;20462;-72
2021/05/30 03:21:16;;;;;;;30.43;27.77;;;6.50;99.90;;;;;;4996936;28;20517;-73
2021/05/30 03:23:43;;;;;;;32.93;29.87;;;6.40;99.90;;;;;;4997013;28;21039;-71
2021/05/30 03:26:11;;;;;;;32.40;29.40;;;6.40;99.90;;;;;;5000319;28;20519;-71
2021/05/30 03:28:38;;;;;;;33.13;29.83;;;6.40;99.90;;;;;;4999297;28;20484;-70
2021/05/30 03:31:06;;;;;;;34.47;30.77;;;6.50;99.90;;;;;;4997937;28;20995;-71
2021/05/30 03:33:33;;;;;;;32.93;29.63;;;6.50;99.90;;;;;;4995995;28;20462;-75
2021/05/30 03:36:02;;;;;;;31.93;28.73;;;6.50;99.90;;;;;;4998556;28;20455;-76
2021/05/30 03:38:31;;;;;;;32.57;29.47;;;6.50;99.90;;;;;;4996806;28;20872;-71
2021/05/30 03:41:02;;;;;;;33.67;30.17;;;6.50;99.90;;;;;;5001096;28;20461;-72
2021/05/30 03:43:29;;;;;;;33.40;30.23;;;6.60;99.90;;;;;;4999689;28;20536;-72
2021/05/30 03:45:56;;;;;;;33.93;30.53;;;6.60;99.90;;;;;;5001123;28;20469;-75
2021/05/30 03:48:22;;;;;;;32.20;29.20;;;6.60;99.90;;;;;;5001676;28;20511;-72
2021/05/30 03:50:50;;;;;;;34.97;31.40;;;6.70;99.90;;;;;;5005156;28;20486;-72
2021/05/30 03:53:17;;;;;;;33.40;30.20;;;6.70;99.90;;;;;;4999572;28;20461;-72
2021/05/30 03:55:43;;;;;;;36.00;32.50;;;6.80;99.90;;;;;;4999962;28;20477;-72
2021/05/30 03:58:11;;;;;;;32.93;29.87;;;6.80;99.90;;;;;;5000975;28;20561;-73
2021/05/30 04:00:38;;;;;;;36.90;31.63;;;6.80;99.90;;;;;;5001981;28;20526;-72
2021/05/30 04:03:05;;;;;;;37.20;33.23;;;6.90;99.90;;;;;;5001150;28;20466;-73
2021/05/30 04:05:31;;;;;;;33.27;30.07;;;6.90;99.90;;;;;;4997320;28;20465;-72
2021/05/30 04:07:58;;;;;;;34.83;31.50;;;6.90;99.90;;;;;;4993662;28;20478;-72
2021/05/30 04:10:25;;;;;;;31.60;28.60;;;6.90;99.90;;;;;;5003576;28;20884;-72
2021/05/30 04:12:51;;;;;;;33.40;30.10;;;6.90;99.90;;;;;;5011483;28;21058;-72
2021/05/30 04:15:19;;;;;;;39.07;34.80;;;7.00;99.90;;;;;;5003833;28;21015;-74
2021/05/30 04:17:47;;;;;;;39.10;35.10;;;7.10;99.90;;;;;;5001145;28;20462;-72
2021/05/30 04:20:17;;;;;;;35.00;31.60;;;7.10;99.90;;;;;;4996713;28;20512;-72
2021/05/30 04:22:44;;;;;;;37.33;33.33;;;7.10;99.90;;;;;;5003452;28;20489;-74
2021/05/30 04:25:11;;;;;;;36.70;33.10;;;7.20;99.90;;;;;;4996226;28;20491;-72
2021/05/30 04:27:38;;;;;;;38.87;34.47;;;7.30;99.90;;;;;;4997580;28;20489;-72
2021/05/30 04:30:06;;;;;;;33.40;29.93;;;7.30;99.90;;;;;;4998558;28;20849;-74
2021/05/30 04:32:33;;;;;;;38.33;34.37;;;7.40;99.90;;;;;;4995238;28;20871;-71
2021/05/30 04:34:59;;;;;;;34.10;30.70;;;7.40;99.90;;;;;;5001130;28;20469;-72
2021/05/30 04:37:26;;;;;;;36.00;31.97;;;7.60;99.90;;;;;;5000149;28;20461;-74
2021/05/30 04:39:53;;;;;;;35.90;32.30;;;7.60;99.90;;;;;;4999992;28;20469;-72
2021/05/30 04:42:19;;;;;;;35.60;31.80;;;7.70;99.90;;;;;;4997810;28;20462;-72
2021/05/30 04:44:46;;;;;;;34.83;30.90;;;7.70;99.90;;;;;;4998186;28;20466;-71
2021/05/30 04:47:13;;;;;;;35.40;31.80;;;7.80;99.90;;;;;;5001974;28;20462;-71
2021/05/30 04:49:41;;;;;;;36.20;32.60;;;7.90;99.90;;;;;;4999300;28;20847;-72
2021/05/30 04:52:08;;;;;;;39.90;35.60;;;8.00;99.90;;;;;;5006324;28;20469;-72
2021/05/30 04:54:34;;;;;;;40.80;36.40;;;8.10;99.90;;;;;;5005390;28;20481;-72
2021/05/30 04:57:01;;;;;;;39.60;35.40;;;8.20;99.90;;;;;;4999050;28;20473;-72
2021/05/30 04:59:27;;;;;;;38.80;34.70;;;8.40;99.90;;;;;;5002217;28;20536;-73
2021/05/30 05:01:54;;;;;;;48.60;38.20;;;8.50;99.90;;;;;;4999868;28;20961;-73
2021/05/30 05:04:20;;;;;;;46.73;37.13;;;8.60;99.90;;;;;;5002248;28;20486;-72
2021/05/30 05:06:48;;;;;;;41.37;36.97;;;8.90;99.90;;;;;;5004084;28;20472;-72
2021/05/30 05:09:14;;;;;;;45.57;39.73;;;9.10;99.90;;;;;;5000834;28;20450;-73
2021/05/30 05:11:41;;;;;;;52.73;40.10;;;9.30;99.90;;;;;;4994547;28;21023;-71
2021/05/30 05:14:07;;;;;;;50.70;39.93;;;9.60;99.90;;;;;;4996693;28;20471;-75
2021/05/30 05:16:34;;;;;;;50.27;41.43;;;9.80;99.90;;;;;;5006374;28;20804;-72
2021/05/30 05:19:00;;;;;;;52.23;42.77;;;10.00;99.90;;;;;;5004135;28;20469;-72
2021/05/30 05:21:27;;;;;;;48.70;40.90;;;10.10;99.90;;;;;;4999765;28;20476;-72
2021/05/30 05:23:55;;;;;;;47.60;41.17;;;10.30;99.90;;;;;;4998367;28;20473;-73
2021/05/30 05:26:22;;;;;;;51.33;42.83;;;10.40;99.90;;;;;;5001506;28;20472;-73
2021/05/30 05:28:49;;;;;;;50.60;39.10;;;10.60;99.90;;;;;;5001070;28;20489;-73
2021/05/30 05:31:15;;;;;;;52.20;41.77;;;10.80;99.90;;;;;;5003851;28;20494;-76
2021/05/30 05:33:42;;;;;;;54.23;42.00;;;10.90;99.90;;;;;;5001188;28;20471;-76
2021/05/30 05:36:09;;;;;;;50.63;41.33;;;11.00;99.90;;;;;;5001978;28;20465;-73
2021/05/30 05:38:35;;;;;;;48.50;41.07;;;11.20;99.90;;;;;;5004408;28;20877;-74
2021/05/30 05:41:03;;;;;;;47.73;41.23;;;11.30;99.90;;;;;;5001564;28;20874;-74
2021/05/30 05:43:29;;;;;;;49.93;42.20;;;11.50;99.90;;;;;;4999101;28;20815;-72
2021/05/30 05:45:56;;;;;;;51.00;41.23;;;11.50;99.90;;;;;;5001387;28;20953;-73
2021/05/30 05:48:22;;;;;;;49.57;39.83;;;11.60;99.90;;;;;;5004486;28;20470;-74
2021/05/30 05:50:49;;;;;;;43.93;39.23;;;11.60;99.90;;;;;;5003714;28;20489;-73
2021/05/30 05:53:16;;;;;;;41.77;37.30;;;11.70;99.90;;;;;;5002221;28;20877;-73
2021/05/30 05:55:43;;;;;;;43.00;38.40;;;11.80;99.90;;;;;;5002063;28;20489;-76
2021/05/30 05:58:11;;;;;;;43.90;39.07;;;12.00;99.90;;;;;;5002692;28;20803;-73
2021/05/30 06:00:38;;;;;;;40.73;36.33;;;12.10;99.90;;;;;;4996866;28;20608;-73
2021/05/30 06:03:04;;;;;;;41.57;37.27;;;12.10;99.90;;;;;;5004251;28;20488;-74
2021/05/30 06:05:31;;;;;;;40.60;36.33;;;12.40;99.90;;;;;;5001875;28;20794;-73
2021/05/30 06:07:59;;;;;;;41.70;37.33;;;12.50;99.90;;;;;;5000574;28;20462;-73
2021/05/30 06:10:27;;;;;;;40.80;36.50;;;12.60;99.90;;;;;;5000501;28;20928;-72
2021/05/30 06:12:54;;;;;;;37.13;33.33;;;12.70;99.90;;;;;;4995225;28;20929;-73
2021/05/30 06:15:24;;;;;;;37.80;33.87;;;12.90;99.90;;;;;;5000300;28;22497;-72
2021/05/30 06:17:54;;;;;;;36.30;32.53;;;13.00;99.90;;;;;;5004631;28;20508;-74
2021/05/30 06:20:21;;;;;;;34.63;31.10;;;13.20;99.90;;;;;;5003329;28;20462;-73
2021/05/30 06:22:48;;;;;;;33.27;29.80;;;13.30;99.90;;;;;;4999464;28;20463;-75
2021/05/30 06:25:15;;;;;;;31.47;28.57;;;13.40;99.90;;;;;;5000196;28;20761;-73
2021/05/30 06:27:41;;;;;;;33.07;29.40;;;13.40;99.90;;;;;;4995945;28;20462;-73
2021/05/30 06:30:08;;;;;;;32.00;28.70;;;13.50;99.90;;;;;;5000579;28;21457;-72
2021/05/30 06:32:35;;;;;;;32.10;29.20;;;13.70;99.90;;;;;;4999849;28;20479;-72
2021/05/30 06:35:02;;;;;;;31.33;28.27;;;13.80;99.90;;;;;;4997541;28;20996;-71
2021/05/30 06:37:28;;;;;;;30.50;27.73;;;14.00;99.90;;;;;;4998955;28;20546;-72
2021/05/30 06:39:54;;;;;;;30.77;27.80;;;14.00;99.90;;;;;;5000828;28;20462;-73
2021/05/30 06:42:21;;;;;;;31.47;28.40;;;14.00;99.90;;;;;;5003403;28;20473;-71
2021/05/30 06:44:47;;;;;;;31.80;28.70;;;14.10;99.90;;;;;;5004521;28;20469;-71
2021/05/30 06:47:13;;;;;;;27.93;25.33;;;14.20;99.90;;;;;;5004594;28;20870;-72
2021/05/30 06:49:40;;;;;;;25.60;23.50;;;14.50;99.90;;;;;;5002387;28;20481;-72
2021/05/30 06:52:07;;;;;;;26.50;24.40;;;14.60;99.90;;;;;;5001250;28;20489;-71
2021/05/30 06:54:34;;;;;;;28.23;25.43;;;14.70;99.90;;;;;;4994050;28;20488;-73
2021/05/30 06:57:01;;;;;;;27.60;25.00;;;14.70;99.90;;;;;;4999810;28;20476;-73
2021/05/30 06:59:28;;;;;;;26.37;24.07;;;14.70;99.90;;;;;;4996456;28;20466;-72
2021/05/30 07:01:54;;;;;;;26.33;23.93;;;14.90;99.90;;;;;;5005551;28;20892;-72
2021/05/30 07:04:22;;;;;;;24.47;22.57;;;15.00;99.90;;;;;;5000469;28;20470;-72
2021/05/30 07:06:49;;;;;;;24.20;22.17;;;15.10;99.90;;;;;;4995419;28;20470;-72
2021/05/30 07:09:15;;;;;;;23.43;21.60;;;15.10;99.90;;;;;;5000757;28;20457;-72
2021/05/30 07:11:43;;;;;;;23.07;21.17;;;15.40;99.90;;;;;;5002555;28;20515;-72
2021/05/30 07:14:09;;;;;;;24.70;22.70;;;15.60;99.90;;;;;;5002933;28;20464;-72
2021/05/30 07:16:35;;;;;;;25.53;23.10;;;15.70;99.90;;;;;;5001146;28;20732;-73
2021/05/30 07:19:02;;;;;;;24.33;22.53;;;15.80;99.90;;;;;;5001103;28;20458;-72
2021/05/30 07:21:29;;;;;;;26.50;23.80;;;16.10;99.90;;;;;;4999944;28;20508;-71
2021/05/30 07:23:56;;;;;;;22.93;21.20;;;16.20;99.90;;;;;;5002085;28;20804;-72
2021/05/30 07:26:24;;;;;;;23.73;21.43;;;16.40;99.90;;;;;;4996599;28;20819;-72
2021/05/30 07:28:50;;;;;;;21.93;19.93;;;16.40;99.90;;;;;;4991623;28;20938;-71
2021/05/30 07:31:17;;;;;;;22.40;20.60;;;16.40;99.90;;;;;;4980063;28;20498;-72
2021/05/30 07:33:45;;;;;;;25.37;23.00;;;16.50;99.90;;;;;;4975319;28;20476;-72
2021/05/30 07:36:13;;;;;;;23.50;21.70;;;16.50;99.90;;;;;;4976263;28;20470;-71
2021/05/30 07:38:39;;;;;;;23.53;21.53;;;16.40;99.90;;;;;;4978633;28;21071;-71
2021/05/30 07:41:07;;;;;;;22.07;20.37;;;16.50;99.90;;;;;;4979014;28;20481;-72
2021/05/30 07:43:34;;;;;;;23.83;21.93;;;16.70;99.90;;;;;;4975715;28;20459;-71
2021/05/30 07:46:00;;;;;;;23.60;21.50;;;16.80;99.90;;;;;;4979630;28;20481;-72
2021/05/30 07:48:26;;;;;;;23.37;21.57;;;16.80;99.90;;;;;;4976874;28;20474;-72
2021/05/30 07:50:53;;;;;;;24.20;22.30;;;17.00;99.90;;;;;;4970685;28;20529;-72
2021/05/30 07:53:20;;;;;;;23.37;21.20;;;17.00;99.90;;;;;;4980606;28;20506;-71
2021/05/30 07:55:46;;;;;;;24.13;22.17;;;16.80;99.90;;;;;;4982064;28;20587;-72
2021/05/30 07:58:15;;;;;;;23.70;21.80;;;16.90;99.90;;;;;;4983572;28;20458;-71
2021/05/30 08:00:42;;;;;;;21.27;19.67;;;16.90;99.90;;;;;;4978444;28;20973;-72
2021/05/30 08:03:08;;;;;;;23.13;21.30;;;17.10;99.90;;;;;;4976405;28;20450;-71
2021/05/30 08:05:35;;;;;;;20.87;18.77;;;17.20;99.90;;;;;;4980826;28;20466;-72
2021/05/30 08:08:02;;;;;;;22.07;20.47;;;17.60;99.90;;;;;;4982124;28;20459;-71
2021/05/30 08:10:29;;;;;;;22.63;20.63;;;18.50;99.90;;;;;;4980269;28;21004;-72
2021/05/30 08:12:56;;;;;;;22.57;20.57;;;19.40;99.90;;;;;;4980567;28;20463;-72
2021/05/30 08:15:23;;;;;;;21.27;19.60;;;20.40;99.90;;;;;;4981528;28;20557;-72
2021/05/30 08:17:52;;;;;;;21.93;20.27;;;21.00;99.90;;;;;;4979120;28;20478;-72
2021/05/30 08:20:19;;;;;;;22.33;20.53;;;21.50;99.90;;;;;;4975873;28;20464;-72
2021/05/30 08:22:46;;;;;;;23.43;21.13;;;21.50;99.90;;;;;;4986432;28;20456;-71
2021/05/30 08:25:14;;;;;;;23.17;21.30;;;22.20;99.90;;;;;;4986854;28;20461;-71
2021/05/30 08:27:41;;;;;;;21.10;19.47;;;22.40;99.90;;;;;;4975561;28;20472;-71
2021/05/30 08:30:09;;;;;;;22.13;20.20;;;22.70;99.90;;;;;;4993380;28;20764;-72
2021/05/30 08:32:37;;;;;;;20.07;18.37;;;21.30;99.90;;;;;;4998285;28;21145;-71
2021/05/30 08:35:05;;;;;;;20.07;18.47;;;21.90;99.90;;;;;;4999491;28;20477;-72
2021/05/30 08:37:32;;;;;;;21.80;19.63;;;22.60;99.90;;;;;;4997037;28;20461;-72
2021/05/30 08:39:58;;;;;;;19.70;18.30;;;23.70;99.90;;;;;;5001584;28;20462;-71
2021/05/30 08:42:24;;;;;;;19.50;17.90;;;23.70;99.90;;;;;;4993617;28;20910;-71
2021/05/30 08:44:52;;;;;;;20.20;18.70;;;24.30;99.90;;;;;;4998748;28;20507;-72
2021/05/30 08:47:19;;;;;;;19.83;18.13;;;25.20;98.80;;;;;;4999867;28;20847;-71
2021/05/30 08:49:46;;;;;;;18.77;17.20;;;25.30;96.40;;;;;;5002949;28;20838;-72
2021/05/30 08:52:13;;;;;;;18.50;17.23;;;25.10;95.60;;;;;;4997036;28;20465;-72
2021/05/30 08:54:39;;;;;;;21.10;19.60;;;25.80;94.50;;;;;;4994386;28;20851;-71
2021/05/30 08:57:06;;;;;;;20.93;19.30;;;25.90;94.00;;;;;;4999331;28;20470;-71
2021/05/30 08:59:33;;;;;;;20.70;19.00;;;26.10;93.60;;;;;;4998317;28;20471;-71
2021/05/30 09:02:03;;;;;;;20.90;19.40;;;24.80;94.30;;;;;;5001085;28;20453;-72
2021/05/30 09:04:33;;;;;;;19.60;18.10;;;25.10;94.30;;;;;;4999639;28;20838;-71
2021/05/30 09:07:01;;;;;;;19.30;17.97;;;25.10;94.40;;;;;;4999070;28;20455;-71
2021/05/30 09:09:37;;;;;;;18.27;17.00;;;25.30;93.60;;;;;;5002640;28;20454;-71
2021/05/30 09:12:04;;;;;;;20.27;18.67;;;25.30;91.50;;;;;;4997961;28;20964;-71
2021/05/30 09:14:44;;;;;;;20.93;19.40;;;24.50;92.10;;;;;;4995560;28;20458;-71
2021/05/30 09:17:11;;;;;;;19.77;18.47;;;24.10;92.80;;;;;;5000497;28;20460;-72
2021/05/30 09:19:43;;;;;;;19.33;18.00;;;23.50;92.70;;;;;;5000979;28;20656;-71
2021/05/30 09:22:29;;;;;;;18.03;16.70;;;23.80;92.70;;;;;;5002654;28;20489;-71
2021/05/30 09:25:09;;;;;;;17.27;16.07;;;24.70;91.60;;;;;;5000409;28;20471;-71
2021/05/30 09:27:39;;;;;;;17.03;15.90;;;24.80;91.30;;;;;;4997671;28;20494;-71
2021/05/30 09:30:11;;;;;;;16.70;15.67;;;24.70;90.00;;;;;;5004890;28;20689;-71
2021/05/30 09:33:03;;;;;;;15.30;14.40;;;25.80;91.10;;;;;;4997672;28;20516;-72
2021/05/30 09:35:44;;;;;;;15.87;14.93;;;25.90;84.70;;;;;;5002987;28;20461;-72
2021/05/30 09:38:14;;;;;;;16.80;15.80;;;25.60;84.50;;;;;;5001489;28;20457;-72
2021/05/30 09:40:42;;;;;;;17.33;16.10;;;26.70;81.70;;;;;;4998517;28;20960;-71
2021/05/30 09:43:11;;;;;;;18.37;17.10;;;27.20;80.60;;;;;;5002780;28;20457;-72
2021/05/30 09:45:38;;;;;;;15.53;14.60;;;27.60;79.10;;;;;;5002397;28;20477;-72
2021/05/30 09:48:15;;;;;;;16.20;15.20;;;27.90;77.80;;;;;;5004672;28;20917;-72
2021/05/30 09:50:42;;;;;;;15.07;14.07;;;28.40;70.40;;;;;;5007126;28;20488;-71
2021/05/30 09:53:09;;;;;;;18.20;16.77;;;28.10;68.10;;;;;;4991014;28;20542;-71
2021/05/30 09:55:36;;;;;;;17.77;16.67;;;27.10;70.10;;;;;;4993511;28;20500;-71
2021/05/30 09:58:13;;;;;;;17.30;16.20;;;26.60;71.20;;;;;;4999759;28;20476;-71
2021/05/30 10:00:41;;;;;;;16.07;15.07;;;25.70;73.10;;;;;;5000134;28;20458;-71
2021/05/30 10:03:08;;;;;;;16.40;15.00;;;26.40;70.20;;;;;;4997331;28;20458;-71
2021/05/30 10:05:36;;;;;;;14.20;13.40;;;26.40;69.00;;;;;;4998441;28;20461;-71
2021/05/30 10:08:03;;;;;;;13.80;13.10;;;26.70;63.50;;;;;;4991827;28;20467;-71
2021/05/30 10:10:31;;;;;;;17.20;15.90;;;27.40;65.30;;;;;;4998944;28;20497;-71
2021/05/30 10:13:00;;;;;;;16.53;15.43;;;27.30;67.20;;;;;;4992981;28;20474;-72
2021/05/30 10:15:27;;;;;;;15.43;14.53;;;27.30;66.30;;;;;;4990970;28;20474;-71
2021/05/30 10:17:55;;;;;;;15.60;14.80;;;27.40;69.00;;;;;;4999957;28;20476;-71
2021/05/30 10:20:24;;;;;;;15.20;13.70;;;27.70;65.30;;;;;;4995384;28;20457;-71
2021/05/30 10:22:54;;;;;;;13.90;13.20;;;26.90;60.90;;;;;;4992195;28;20876;-71
2021/05/30 10:25:29;;;;;;;14.80;13.97;;;27.80;61.70;;;;;;4994167;28;20473;-71
2021/05/30 10:28:13;;;;;;;14.87;13.87;;;27.80;59.40;;;;;;4999346;28;20465;-71
2021/05/30 10:30:41;;;;;;;15.33;14.43;;;28.00;59.20;;;;;;4996595;28;20497;-71
2021/05/30 10:33:11;;;;;;;14.03;13.30;;;28.40;59.10;;;;;;4995276;28;20776;-71
2021/05/30 10:35:38;;;;;;;13.87;13.10;;;28.20;59.10;;;;;;4999185;28;20466;-71
2021/05/30 10:38:05;;;;;;;14.83;13.70;;;29.00;58.70;;;;;;5004507;28;20884;-72
2021/05/30 10:40:35;;;;;;;14.07;13.17;;;28.90;56.90;;;;;;5001885;28;20527;-71
2021/05/30 10:43:16;;;;;;;15.40;14.37;;;28.60;57.30;;;;;;5001871;28;20805;-71
2021/05/30 10:46:03;;;;;;;14.13;13.30;;;26.80;57.70;;;;;;4995299;28;20496;-71
2021/05/30 10:48:30;;;;;;;14.20;13.17;;;26.50;58.50;;;;;;4996713;28;20459;-71
2021/05/30 10:51:08;;;;;;;13.53;12.83;;;27.40;56.60;;;;;;4999541;28;20501;-71
2021/05/30 10:53:37;;;;;;;13.03;12.27;;;27.90;56.90;;;;;;4999085;28;20460;-71
2021/05/30 10:56:30;;;;;;;14.40;13.50;;;27.90;56.80;;;;;;4998260;28;20489;-71
2021/05/30 10:59:33;;;;;;;14.07;13.30;;;28.10;54.10;;;;;;4992743;28;21167;-71
2021/05/30 11:02:12;;;;;;;14.30;13.60;;;28.10;54.90;;;;;;4998319;28;20568;-71
2021/05/30 11:04:39;;;;;;;14.63;13.50;;;28.10;54.90;;;;;;5001177;28;20469;-71
2021/05/30 11:07:38;;;;;;;13.47;12.77;;;27.90;55.20;;;;;;5000949;28;20761;-71
2021/05/30 11:10:13;;;;;;;13.70;12.93;;;28.40;53.20;;;;;;5002593;28;20501;-71
2021/05/30 11:12:59;;;;;;;14.33;13.53;;;28.50;52.20;;;;;;5000607;28;20839;-71
2021/05/30 11:15:34;;;;;;;13.27;12.47;;;29.00;52.40;;;;;;4997337;28;20553;-72
2021/05/30 11:18:02;;;;;;;13.00;12.30;;;28.40;53.40;;;;;;5000130;28;20465;-71
2021/05/30 11:20:40;;;;;;;13.70;12.87;;;28.80;52.90;;;;;;4998111;28;20938;-72
2021/05/30 11:23:12;;;;;;;13.77;13.07;;;29.70;51.90;;;;;;4996114;28;20466;-72
2021/05/30 11:25:40;;;;;;;14.40;13.50;;;30.00;49.80;;;;;;4995721;28;20454;-71
2021/05/30 11:28:08;;;;;;;13.43;12.60;;;30.50;47.60;;;;;;4998411;28;20497;-72
2021/05/30 11:30:51;;;;;;;14.10;13.20;;;30.90;48.90;;;;;;5003746;28;20494;-72
2021/05/30 11:33:39;;;;;;;14.37;13.53;;;30.60;48.30;;;;;;4999955;28;20465;-72
2021/05/30 11:36:08;;;;;;;13.50;12.80;;;30.60;47.80;;;;;;5002247;28;20472;-72
2021/05/30 11:38:39;;;;;;;13.33;12.53;;;29.50;47.40;;;;;;4998977;28;20858;-71
2021/05/30 11:41:14;;;;;;;12.63;11.93;;;29.00;49.30;;;;;;5002095;28;20466;-71
2021/05/30 11:43:53;;;;;;;12.77;12.17;;;29.40;49.80;;;;;;4997726;28;20510;-71
2021/05/30 11:46:20;;;;;;;12.20;11.60;;;30.50;47.00;;;;;;5003012;28;20977;-71
2021/05/30 11:48:58;;;;;;;12.80;12.20;;;30.60;45.40;;;;;;4996056;28;20737;-72
2021/05/30 11:51:25;;;;;;;12.90;12.13;;;30.20;45.60;;;;;;4998704;28;21028;-71
2021/05/30 11:53:51;;;;;;;13.40;12.70;;;30.10;45.60;;;;;;4997459;28;20516;-72
2021/05/30 11:56:18;;;;;;;13.03;12.33;;;31.10;45.90;;;;;;4999640;28;20494;-72
2021/05/30 11:58:48;;;;;;;13.07;12.40;;;31.20;44.70;;;;;;5007952;28;20576;-71
2021/05/30 12:01:14;;;;;;;13.00;12.27;;;30.80;45.20;;;;;;5005833;28;20465;-71
2021/05/30 12:03:48;;;;;;;13.53;12.90;;;31.10;46.20;;;;;;5005983;28;20458;-72
2021/05/30 12:06:15;;;;;;;12.70;12.10;;;31.50;44.20;;;;;;5001363;28;20498;-71
2021/05/30 12:08:42;;;;;;;12.70;12.10;;;31.00;46.40;;;;;;5003950;28;20469;-71
2021/05/30 12:11:11;;;;;;;13.60;12.60;;;31.70;43.80;;;;;;5005232;28;20995;-72
2021/05/30 12:13:39;;;;;;;13.47;12.70;;;32.10;44.40;;;;;;5006698;28;20572;-71
2021/05/30 12:16:17;;;;;;;14.20;13.30;;;30.00;44.20;;;;;;5008288;28;20464;-71
2021/05/30 12:18:54;;;;;;;13.63;12.93;;;28.90;46.90;;;;;;5008274;28;20465;-72
2021/05/30 12:21:21;;;;;;;13.40;12.70;;;28.80;46.80;;;;;;5009708;28;20716;-71
2021/05/30 12:23:48;;;;;;;15.63;13.40;;;28.80;47.10;;;;;;5006989;28;20476;-71
2021/05/30 12:26:16;;;;;;;13.30;12.40;;;29.60;44.40;;;;;;4998451;28;20465;-71
2021/05/30 12:28:43;;;;;;;14.07;13.27;;;29.70;43.50;;;;;;5004090;28;20494;-72
2021/05/30 12:31:11;;;;;;;13.60;12.90;;;29.20;45.50;;;;;;5002596;28;21214;-71
2021/05/30 12:33:51;;;;;;;13.97;13.27;;;30.00;44.90;;;;;;5003575;28;20462;-71
2021/05/30 12:36:34;;;;;;;13.70;13.00;;;31.20;45.40;;;;;;5009919;28;20505;-71
2021/05/30 12:39:07;;;;;;;14.30;13.40;;;30.50;44.20;;;;;;5006529;28;20466;-71